Time;durP1;ratioP1;P1;durP2;ratioP2;P2;SDS_P1;SDS_P2;PMS_P1;PMS_P2;Temp;Humidity;BMP_temperature;BMP_pressure;BME280_temperature;BME280_humidity;BME280_pressure;Samples;Min_cycle;Max_cycle;Signal;HPM_P1;HPM_P2
2023/07/06 00:02:00;;;;;;;4.05;1.10;;;;;;;15.76;78.27;101582.81;4992016;28;96560;-26
2023/07/06 00:04:25;;;;;;;5.57;0.93;;;;;;;15.75;78.62;101584.66;4991979;28;96781;-26
2023/07/06 00:06:51;;;;;;;7.35;1.05;;;;;;;15.77;78.25;101588.16;4993446;28;98397;-26
2023/07/06 00:09:16;;;;;;;2.30;0.70;;;;;;;15.81;78.52;101584.22;4993037;28;99407;-26
2023/07/06 00:11:44;;;;;;;3.05;0.93;;;;;;;15.76;78.57;101582.81;4993717;28;96562;-26
2023/07/06 00:14:15;;;;;;;3.25;1.02;;;;;;;15.80;78.11;101600.72;4993435;28;96943;-26
2023/07/06 00:16:46;;;;;;;3.35;0.70;;;;;;;15.81;78.28;101594.28;4992841;28;97393;-26
2023/07/06 00:19:11;;;;;;;3.23;0.97;;;;;;;15.82;77.74;101594.16;4991670;28;99535;-26
2023/07/06 00:21:36;;;;;;;1.80;0.85;;;;;;;15.78;78.01;101592.63;4992353;28;96496;-26
2023/07/06 00:24:02;;;;;;;4.68;1.02;;;;;;;15.74;78.18;101584.78;4993180;28;96776;-28
2023/07/06 00:26:27;;;;;;;1.00;0.68;;;;;;;15.79;77.92;101596.25;4992728;28;99423;-26
2023/07/06 00:28:55;;;;;;;2.88;0.77;;;;;;;15.80;78.57;101595.25;4992971;28;97349;-27
2023/07/06 00:31:32;;;;;;;2.67;0.90;;;;;;;15.77;77.86;101593.59;4991288;28;96682;-26
2023/07/06 00:34:04;;;;;;;2.25;0.85;;;;;;;15.74;78.10;101588.38;4993230;28;96628;-26
2023/07/06 00:36:30;;;;;;;;;;;;;;;15.77;78.82;101595.47;4991480;28;101211;-26
2023/07/06 00:38:55;;;;;;;2.67;1.08;;;;;;;15.67;78.23;101587.91;4991300;28;101241;-26
2023/07/06 00:41:21;;;;;;;0.93;0.57;;;;;;;15.72;78.24;101604.00;4992535;28;96737;-27
2023/07/06 00:43:52;;;;;;;5.63;1.23;;;;;;;15.68;78.13;101595.13;4992497;28;96794;-26
2023/07/06 00:46:20;;;;;;;2.85;1.00;;;;;;;15.59;78.32;101595.78;4990390;28;99353;-26
2023/07/06 00:48:48;;;;;;;2.00;0.55;;;;;;;15.63;77.46;101596.41;4991273;28;100972;-26
2023/07/06 00:51:25;;;;;;;2.90;1.20;;;;;;;15.53;77.92;101593.47;4991254;28;96797;-26
2023/07/06 00:54:03;;;;;;;1.85;0.70;;;;;;;15.55;77.88;101596.97;4991223;28;96866;-26
2023/07/06 00:56:36;;;;;;;2.20;0.88;;;;;;;15.59;77.59;101593.03;4991124;28;101061;-27
2023/07/06 00:59:05;;;;;;;1.42;0.70;;;;;;;15.57;77.38;101591.41;4992714;28;97792;-26
2023/07/06 01:01:34;;;;;;;1.58;0.70;;;;;;;15.58;77.82;101591.28;4991108;28;96620;-26
2023/07/06 01:04:01;;;;;;;2.70;0.80;;;;;;;15.56;77.83;101586.91;4991464;28;97171;-26
2023/07/06 01:06:37;;;;;;;3.75;0.93;;;;;;;15.57;77.71;101596.88;4990891;28;101486;-27
2023/07/06 01:09:04;;;;;;;3.35;0.85;;;;;;;15.49;78.38;101576.44;4990967;28;100994;-26
2023/07/06 01:11:31;;;;;;;1.58;0.80;;;;;;;15.56;78.08;101592.38;4990373;28;96666;-26
2023/07/06 01:13:57;;;;;;;3.38;0.57;;;;;;;15.51;77.89;101584.50;4990996;28;96948;-28
2023/07/06 01:16:39;;;;;;;1.40;0.60;;;;;;;15.50;78.83;101588.22;4990738;28;100988;-28
2023/07/06 01:19:07;;;;;;;3.42;0.90;;;;;;;15.50;78.58;101588.22;4992414;28;97521;-26
2023/07/06 01:21:50;;;;;;;1.48;0.93;;;;;;;15.49;78.81;101590.09;4992183;28;96511;-26
2023/07/06 01:24:42;;;;;;;2.88;1.17;;;;;;;15.50;78.52;101588.22;4991024;28;96823;-26
2023/07/06 01:27:26;;;;;;;;;;;;;;;15.45;78.65;101594.00;4991257;28;100767;-27
2023/07/06 01:30:06;;;;;;;1.58;0.55;;;;;;;15.44;78.72;101580.47;4992555;28;97295;-26
2023/07/06 01:32:39;;;;;;;4.32;0.88;;;;;;;15.40;78.60;101587.13;4990866;28;96796;-26
2023/07/06 01:35:16;;;;;;;5.38;1.00;;;;;;;15.39;78.80;101588.09;4990593;28;96719;-27
2023/07/06 01:37:43;;;;;;;5.25;1.23;;;;;;;15.41;79.24;101597.94;4991339;28;97944;-27
2023/07/06 01:40:10;;;;;;;5.15;1.13;;;;;;;15.35;79.50;101583.81;4989796;28;100835;-28
2023/07/06 01:42:40;;;;;;;5.07;0.98;;;;;;;15.27;79.84;101571.59;4990704;28;96946;-27
2023/07/06 01:45:18;;;;;;;2.08;1.13;;;;;;;15.35;79.84;101601.09;4992060;28;96762;-26
2023/07/06 01:47:52;;;;;;;1.88;1.00;;;;;;;15.36;79.59;101596.50;4990568;28;100861;-27
2023/07/06 01:50:23;;;;;;;6.05;0.98;;;;;;;15.32;80.19;101587.66;4990340;28;101003;-26
2023/07/06 01:52:57;;;;;;;2.55;0.85;;;;;;;15.36;80.14;101591.06;4991828;28;96602;-26
2023/07/06 01:55:40;;;;;;;2.53;1.05;;;;;;;15.37;80.48;101601.84;4992240;28;96545;-26
2023/07/06 01:58:23;;;;;;;0.85;0.70;;;;;;;15.35;79.89;101594.75;4992852;28;101047;-26
2023/07/06 02:00:55;;;;;;;3.20;1.23;;;;;;;15.37;79.66;101598.25;4993867;28;100873;-26
2023/07/06 02:03:24;;;;;;;3.33;1.30;;;;;;;15.33;80.01;101592.16;4995058;28;96579;-26
2023/07/06 02:05:50;;;;;;;4.47;1.02;;;;;;;15.35;79.74;101592.91;4993734;28;97112;-27
2023/07/06 02:08:17;;;;;;;6.60;1.30;;;;;;;15.34;81.01;101593.88;4995104;28;97425;-26
2023/07/06 02:10:42;;;;;;;3.25;1.27;;;;;;;15.35;80.68;101587.47;4993487;28;101120;-26
2023/07/06 02:13:08;;;;;;;3.28;1.05;;;;;;;15.38;80.40;101589.09;4994965;28;96777;-26
2023/07/06 02:15:33;;;;;;;4.68;1.45;;;;;;;15.37;81.01;101584.59;4994979;28;96773;-27
2023/07/06 02:18:01;;;;;;;2.08;1.05;;;;;;;15.35;81.00;101592.91;4994728;28;99440;-27
2023/07/06 02:20:27;;;;;;;3.60;1.05;;;;;;;15.34;81.19;101584.81;4994095;28;99531;-26
2023/07/06 02:22:52;;;;;;;4.07;1.05;;;;;;;15.36;81.01;101591.06;4994790;28;96557;-26
2023/07/06 02:25:18;;;;;;;5.13;0.90;;;;;;;15.34;80.83;101590.28;4994860;28;96852;-26
2023/07/06 02:27:43;;;;;;;5.15;1.10;;;;;;;15.36;80.48;101585.59;4994385;28;97929;-26
2023/07/06 02:30:09;;;;;;;3.28;1.20;;;;;;;15.35;80.91;101589.28;4994799;28;97244;-27
2023/07/06 02:32:34;;;;;;;5.43;1.05;;;;;;;15.34;81.12;101585.69;4994816;28;97009;-27
2023/07/06 02:35:02;;;;;;;5.15;1.25;;;;;;;15.29;82.09;101576.94;4994516;28;96728;-26
2023/07/06 02:37:28;;;;;;;2.95;1.08;;;;;;;15.29;81.81;101588.75;4976461;28;101137;-26
2023/07/06 02:39:53;;;;;;;7.97;1.38;;;;;;;15.32;81.51;101584.06;4992974;28;101042;-26
2023/07/06 02:42:19;;;;;;;7.07;1.27;;;;;;;15.29;81.06;101579.69;4994825;28;96772;-26
2023/07/06 02:44:45;;;;;;;2.83;1.08;;;;;;;15.33;81.28;101583.09;4994663;28;96757;-26
2023/07/06 02:47:10;;;;;;;2.78;1.02;;;;;;;15.28;81.98;101584.28;4992995;28;101273;-26
2023/07/06 02:49:36;;;;;;;2.85;1.05;;;;;;;15.26;83.11;101588.09;4994393;28;99163;-26
2023/07/06 02:52:02;;;;;;;2.00;0.85;;;;;;;15.23;82.17;101597.38;4994124;28;96684;-27
2023/07/06 02:54:27;;;;;;;2.63;1.17;;;;;;;15.31;81.69;101601.44;4994389;28;96790;-26
2023/07/06 02:56:53;;;;;;;5.30;1.00;;;;;;;15.36;82.05;101596.50;4994539;28;97363;-26
2023/07/06 02:59:19;;;;;;;4.15;1.30;;;;;;;15.36;82.01;101596.50;4994015;28;99421;-26
2023/07/06 03:01:45;;;;;;;2.58;1.10;;;;;;;15.34;82.87;101598.47;4994526;28;96582;-26
2023/07/06 03:04:11;;;;;;;4.50;1.00;;;;;;;15.34;81.94;101602.06;4994359;28;96730;-27
2023/07/06 03:06:39;;;;;;;2.35;1.17;;;;;;;15.38;82.13;101600.88;4994233;28;97926;-28
2023/07/06 03:09:07;;;;;;;2.83;1.08;;;;;;;15.34;81.83;101596.59;4992677;28;100993;-28
2023/07/06 03:11:33;;;;;;;5.90;1.25;;;;;;;15.32;82.79;101598.56;4994151;28;96509;-26
2023/07/06 03:13:59;;;;;;;2.60;1.10;;;;;;;15.26;83.66;101594.41;4993936;28;96910;-27
2023/07/06 03:16:25;;;;;;;2.80;1.42;;;;;;;15.29;83.30;101606.97;4992014;28;100799;-27
2023/07/06 03:18:51;;;;;;;4.47;1.10;;;;;;;15.29;83.58;101610.56;4976177;28;100814;-27
2023/07/06 03:21:16;;;;;;;3.63;1.17;;;;;;;15.33;83.63;101613.97;4994227;28;96663;-26
2023/07/06 03:23:41;;;;;;;6.38;1.20;;;;;;;15.23;83.01;101591.91;4993953;28;96843;-26
2023/07/06 03:26:08;;;;;;;2.25;1.08;;;;;;;15.30;83.47;101608.72;4993688;28;99294;-26
2023/07/06 03:28:35;;;;;;;5.07;1.33;;;;;;;15.29;84.47;101618.75;4992207;28;100769;-26
2023/07/06 03:31:01;;;;;;;3.70;0.98;;;;;;;15.23;84.18;101602.84;4994020;28;96703;-26
2023/07/06 03:33:26;;;;;;;4.97;1.20;;;;;;;15.24;83.56;101610.03;4994145;28;96844;-26
2023/07/06 03:35:53;;;;;;;6.15;1.65;;;;;;;15.26;83.46;101621.72;4993431;28;99463;-26
2023/07/06 03:38:25;;;;;;;3.35;1.35;;;;;;;15.25;84.44;101617.25;4991584;28;100976;-26
2023/07/06 03:40:51;;;;;;;1.98;1.02;;;;;;;15.29;83.54;101623.34;4993270;28;96690;-26
2023/07/06 03:43:17;;;;;;;2.80;1.40;;;;;;;15.33;84.16;101618.56;4993720;28;97300;-27
2023/07/06 03:45:46;;;;;;;7.05;1.67;;;;;;;15.27;84.41;101620.72;4993525;28;98021;-26
2023/07/06 03:48:12;;;;;;;5.95;1.10;;;;;;;15.23;85.37;101619.22;4992138;28;100958;-26
2023/07/06 03:50:37;;;;;;;2.30;1.17;;;;;;;15.26;85.14;101616.25;4992198;28;96625;-26
2023/07/06 03:53:03;;;;;;;2.90;1.20;;;;;;;15.24;84.83;101620.06;4993691;28;96770;-26
2023/07/06 03:55:28;;;;;;;2.10;1.27;;;;;;;15.26;84.79;101624.44;4993160;28;97996;-26
2023/07/06 03:57:54;;;;;;;5.30;1.48;;;;;;;15.24;85.56;101614.63;4993512;28;99090;-26
2023/07/06 04:00:22;;;;;;;8.00;1.88;;;;;;;15.23;86.66;101634.69;4993201;28;96484;-27
2023/07/06 04:02:53;;;;;;;4.45;1.63;;;;;;;15.20;85.74;101624.84;4991993;28;96773;-26
2023/07/06 04:05:24;;;;;;;8.40;1.40;;;;;;;15.20;86.46;101624.84;4991326;28;101194;-26
2023/07/06 04:07:52;;;;;;;4.00;1.42;;;;;;;15.23;85.75;101623.75;4993167;28;98866;-30
2023/07/06 04:10:22;;;;;;;6.45;1.70;;;;;;;15.17;86.65;101630.53;4991673;28;96799;-26
2023/07/06 04:12:48;;;;;;;2.67;1.38;;;;;;;15.22;86.44;101646.59;4993289;28;96793;-26
2023/07/06 04:15:17;;;;;;;4.00;1.60;;;;;;;15.21;86.78;101640.28;4991702;28;101086;-28
2023/07/06 04:17:43;;;;;;;4.80;1.70;;;;;;;15.16;87.39;101639.72;4992889;28;99212;-26
2023/07/06 04:20:18;;;;;;;3.70;1.52;;;;;;;15.14;86.70;101638.94;4992429;28;96595;-26
2023/07/06 04:22:45;;;;;;;7.28;1.92;;;;;;;15.15;86.80;101642.53;4976093;28;96828;-26
2023/07/06 04:25:10;;;;;;;3.88;1.38;;;;;;;15.13;86.57;101637.16;4991507;28;99524;-26
2023/07/06 04:27:36;;;;;;;2.55;1.35;;;;;;;15.16;87.17;101644.28;4992939;28;97819;-26
2023/07/06 04:30:02;;;;;;;4.00;1.58;;;;;;;15.13;86.93;101628.13;4992387;28;96624;-26
2023/07/06 04:32:31;;;;;;;6.68;1.52;;;;;;;15.19;87.04;101639.50;4992763;28;96709;-26
2023/07/06 04:34:57;;;;;;;3.88;1.30;;;;;;;15.16;87.10;101647.00;4991095;28;101597;-27
2023/07/06 04:37:22;;;;;;;6.28;1.52;;;;;;;15.16;86.38;101639.72;4992490;28;97386;-26
2023/07/06 04:39:48;;;;;;;3.95;1.52;;;;;;;15.22;86.88;101644.72;4992537;28;96661;-26
2023/07/06 04:42:13;;;;;;;5.03;1.65;;;;;;;15.19;88.21;101646.81;4992863;28;96792;-26
2023/07/06 04:44:38;;;;;;;4.82;1.40;;;;;;;15.23;89.09;101651.97;4992500;28;99297;-26
2023/07/06 04:47:04;;;;;;;4.72;2.03;;;;;;;15.22;89.51;101647.47;4993093;28;97348;-26
2023/07/06 04:49:29;;;;;;;6.75;2.17;;;;;;;15.24;87.76;101650.97;4992520;28;96501;-31
2023/07/06 04:51:55;;;;;;;4.55;1.98;;;;;;;15.30;88.17;101663.31;4992750;28;96799;-27
2023/07/06 04:54:20;;;;;;;5.15;1.63;;;;;;;15.27;88.48;101650.75;4992028;28;98026;-26
2023/07/06 04:56:46;;;;;;;6.75;2.28;;;;;;;15.33;89.36;101665.84;4992402;28;98760;-26
2023/07/06 04:59:11;;;;;;;2.95;1.42;;;;;;;15.24;89.59;101656.44;4992398;28;96578;-26
2023/07/06 05:01:36;;;;;;;7.10;1.98;;;;;;;15.31;89.05;101666.94;4992415;28;96712;-26
2023/07/06 05:04:02;;;;;;;7.45;1.90;;;;;;;15.26;88.90;101669.97;4992609;28;97778;-26
2023/07/06 05:06:27;;;;;;;5.25;2.05;;;;;;;15.23;88.94;101661.97;4992411;28;97748;-26
2023/07/06 05:08:53;;;;;;;5.28;2.20;;;;;;;15.32;88.58;101671.41;4992587;28;96545;-26
2023/07/06 05:11:18;;;;;;;3.75;1.85;;;;;;;15.31;88.31;101672.41;4992597;28;96817;-26
2023/07/06 05:13:45;;;;;;;4.03;1.92;;;;;;;15.33;88.47;101678.63;4992159;28;99270;-26
2023/07/06 05:16:10;;;;;;;6.97;2.45;;;;;;;15.33;88.04;101670.44;4990306;28;101024;-26
2023/07/06 05:18:36;;;;;;;5.70;2.17;;;;;;;15.34;89.19;101677.63;4990545;28;97438;-32
2023/07/06 05:21:01;;;;;;;10.70;2.58;;;;;;;15.36;89.73;101683.88;4990424;28;96914;-26
2023/07/06 05:23:28;;;;;;;9.18;2.63;;;;;;;15.37;89.05;101681.00;4992131;28;98130;-26
2023/07/06 05:25:55;;;;;;;7.88;2.90;;;;;;;15.34;88.23;101677.63;4991524;28;97893;-29
2023/07/06 05:28:22;;;;;;;8.20;2.88;;;;;;;15.33;89.57;101679.50;4991304;28;96704;-26
2023/07/06 05:30:48;;;;;;;9.95;2.80;;;;;;;15.38;90.59;101688.25;4990729;28;96778;-26
2023/07/06 05:33:14;;;;;;;4.05;2.42;;;;;;;15.39;90.36;101686.38;4990522;28;101009;-28
2023/07/06 05:35:41;;;;;;;8.48;2.53;;;;;;;15.37;90.76;101688.34;4990210;28;97256;-27
2023/07/06 05:38:10;;;;;;;7.90;2.75;;;;;;;15.41;91.02;101693.50;4987363;28;97409;-27
2023/07/06 05:40:39;;;;;;;7.78;3.15;;;;;;;15.42;92.22;101678.88;4987931;28;97292;-27
2023/07/06 05:43:05;;;;;;;8.23;3.22;;;;;;;15.50;90.75;101687.41;4987675;28;101464;-27
2023/07/06 05:45:30;;;;;;;8.23;3.35;;;;;;;15.61;89.69;101692.13;4988372;28;100982;-27
2023/07/06 05:47:55;;;;;;;7.75;3.33;;;;;;;15.75;88.29;101695.78;4989703;28;97135;-33
2023/07/06 05:50:21;;;;;;;7.82;3.47;;;;;;;15.80;88.14;101701.78;4990742;28;96772;-29
2023/07/06 05:52:46;;;;;;;9.23;2.80;;;;;;;15.85;89.07;101705.06;4990552;28;97302;-27
2023/07/06 05:55:12;;;;;;;7.45;3.03;;;;;;;15.78;90.30;101699.19;4990283;28;97296;-26
2023/07/06 05:57:38;;;;;;;8.43;2.67;;;;;;;15.81;90.66;101703.56;4991559;28;96519;-26
2023/07/06 06:00:09;;;;;;;5.43;2.75;;;;;;;15.82;89.52;101713.50;4992179;28;96772;-26
2023/07/06 06:02:35;;;;;;;7.32;3.20;;;;;;;15.87;89.42;101714.94;4990032;28;100793;-26
2023/07/06 06:05:01;;;;;;;6.70;2.72;;;;;;;15.91;89.25;101701.91;4991541;28;97295;-26
2023/07/06 06:07:26;;;;;;;7.78;2.78;;;;;;;15.96;88.79;101709.78;4991057;28;96487;-26
2023/07/06 06:09:52;;;;;;;8.38;2.67;;;;;;;15.99;89.90;101709.56;4991558;28;96823;-27
2023/07/06 06:12:20;;;;;;;10.48;3.10;;;;;;;16.00;89.78;101714.94;4991553;28;97884;-26
2023/07/06 06:14:47;;;;;;;9.70;2.80;;;;;;;16.17;88.64;101715.59;4990130;28;101037;-26
2023/07/06 06:17:15;;;;;;;8.43;3.03;;;;;;;16.25;89.16;101732.31;4989805;28;96662;-26
2023/07/06 06:19:42;;;;;;;5.95;3.28;;;;;;;16.24;88.95;101727.84;4990238;28;96731;-26
2023/07/06 06:22:11;;;;;;;5.45;2.90;;;;;;;16.24;88.13;101727.84;4989912;28;98943;-26
2023/07/06 06:24:36;;;;;;;7.18;2.83;;;;;;;16.31;88.14;101742.84;4991651;28;97817;-26
2023/07/06 06:27:02;;;;;;;9.75;3.72;;;;;;;16.35;88.13;101749.81;4991610;28;96634;-26
2023/07/06 06:29:28;;;;;;;8.43;3.10;;;;;;;16.32;88.58;101747.28;4990032;28;96821;-26
2023/07/06 06:31:54;;;;;;;7.10;2.92;;;;;;;16.21;87.82;101737.16;4990879;28;97940;-27
2023/07/06 06:34:19;;;;;;;5.65;2.88;;;;;;;16.25;87.77;101746.84;4989694;28;100741;-27
2023/07/06 06:36:45;;;;;;;9.18;3.35;;;;;;;16.29;87.94;101744.78;4991492;28;96527;-26
2023/07/06 06:39:10;;;;;;;6.38;2.78;;;;;;;16.38;87.24;101748.75;4991364;28;96796;-26
2023/07/06 06:41:38;;;;;;;12.05;2.97;;;;;;;16.46;86.88;101752.66;4991305;28;97373;-26
2023/07/06 06:44:04;;;;;;;7.53;3.03;;;;;;;16.59;87.17;101749.94;4992183;28;101190;-26
2023/07/06 06:46:30;;;;;;;8.85;3.63;;;;;;;16.61;86.93;101749.78;4994486;28;96620;-26
2023/07/06 06:48:55;;;;;;;9.90;3.53;;;;;;;16.73;86.17;101759.84;4995027;28;96751;-26
2023/07/06 06:51:21;;;;;;;5.50;2.95;;;;;;;16.69;85.68;101756.47;4994524;28;97375;-26
2023/07/06 06:53:46;;;;;;;6.38;3.03;;;;;;;16.75;85.99;101760.59;4994422;28;99203;-26
2023/07/06 06:56:12;;;;;;;11.50;3.63;;;;;;;16.75;85.67;101757.88;4993991;28;96592;-26
2023/07/06 06:58:38;;;;;;;10.02;2.65;;;;;;;16.79;85.38;101764.91;4993008;28;97378;-26
2023/07/06 07:01:07;;;;;;;9.15;2.90;;;;;;;17.02;84.62;101759.59;4992824;28;101472;-26
2023/07/06 07:03:34;;;;;;;6.38;2.60;;;;;;;17.14;84.22;101754.09;4992813;28;100881;-26
2023/07/06 07:06:17;;;;;;;7.55;2.95;;;;;;;17.16;83.96;101767.66;4992943;28;96634;-27
2023/07/06 07:08:50;;;;;;;6.97;3.30;;;;;;;17.23;83.73;101751.63;4993172;28;96833;-26
2023/07/06 07:11:19;;;;;;;6.20;3.42;;;;;;;17.34;82.97;101759.94;4992635;28;101422;-26
2023/07/06 07:13:46;;;;;;;7.78;3.13;;;;;;;17.55;82.96;101755.56;4994364;28;99003;-27
2023/07/06 07:16:11;;;;;;;6.57;3.22;;;;;;;17.75;82.07;101759.47;4992841;28;96639;-26
2023/07/06 07:18:38;;;;;;;6.50;3.20;;;;;;;17.86;81.01;101749.63;4994159;28;96906;-27
2023/07/06 07:21:06;;;;;;;7.93;2.72;;;;;;;17.96;80.76;101748.75;4992144;28;101188;-26
2023/07/06 07:23:41;;;;;;;7.43;2.65;;;;;;;18.18;80.06;101758.91;4992442;28;100761;-27
2023/07/06 07:26:12;;;;;;;4.40;2.17;;;;;;;18.21;79.43;101744.06;4992524;28;96607;-27
2023/07/06 07:28:37;;;;;;;7.07;2.88;;;;;;;18.41;79.13;101762.56;4994143;28;96583;-26
2023/07/06 07:31:02;;;;;;;5.70;2.42;;;;;;;18.48;78.19;101760.19;4994179;28;97360;-26
2023/07/06 07:33:28;;;;;;;5.47;2.78;;;;;;;18.62;78.09;101756.34;4993769;28;97446;-26
2023/07/06 07:36:02;;;;;;;5.15;2.58;;;;;;;18.91;77.16;101764.97;4992226;28;97033;-26
2023/07/06 07:38:28;;;;;;;3.80;2.72;;;;;;;18.72;77.02;101760.09;4993985;28;97035;-26
2023/07/06 07:40:56;;;;;;;7.78;2.92;;;;;;;18.64;77.81;101762.59;4991994;28;101320;-26
2023/07/06 07:43:26;;;;;;;3.80;2.50;;;;;;;18.51;78.08;101762.69;4992134;28;100426;-26
2023/07/06 07:45:57;;;;;;;4.85;2.67;;;;;;;18.65;77.88;101767.94;4991819;28;97012;-27
2023/07/06 07:48:25;;;;;;;6.97;2.40;;;;;;;18.60;77.76;101764.69;4993818;28;96661;-26
2023/07/06 07:50:58;;;;;;;3.97;2.22;;;;;;;18.78;77.60;101775.19;4992122;28;101071;-26
2023/07/06 07:53:26;;;;;;;8.15;2.70;;;;;;;18.90;76.85;101765.94;4993581;28;97934;-26
2023/07/06 07:55:53;;;;;;;3.80;2.15;;;;;;;18.99;76.37;101767.94;4991048;28;96662;-27
2023/07/06 07:58:19;;;;;;;5.60;2.47;;;;;;;19.07;75.34;101776.44;4991900;28;96911;-26
2023/07/06 08:00:49;;;;;;;6.15;1.95;;;;;;;19.21;75.36;101758.81;4993531;28;97969;-26
2023/07/06 08:03:14;;;;;;;6.30;2.42;;;;;;;19.33;74.37;101769.75;4992136;28;100971;-27
2023/07/06 08:05:41;;;;;;;5.43;2.15;;;;;;;19.30;73.95;101773.63;4993208;28;96594;-26
2023/07/06 08:08:11;;;;;;;5.38;2.33;;;;;;;19.09;73.14;101774.44;4993278;28;96872;-26
2023/07/06 08:10:39;;;;;;;4.88;2.15;;;;;;;18.89;75.00;101781.56;4991162;28;100966;-26
2023/07/06 08:13:06;;;;;;;3.90;2.25;;;;;;;18.83;75.38;101778.44;4991634;28;100998;-26
2023/07/06 08:15:32;;;;;;;4.53;1.70;;;;;;;18.78;74.92;101781.59;4991814;28;96682;-27
2023/07/06 08:18:00;;;;;;;4.22;1.92;;;;;;;18.76;74.95;101777.16;4991567;28;96826;-26
2023/07/06 08:20:28;;;;;;;4.43;2.22;;;;;;;18.79;74.95;101786.06;4992901;28;97941;-26
2023/07/06 08:22:59;;;;;;;9.43;2.10;;;;;;;18.97;74.90;101780.06;4991632;28;101070;-26
2023/07/06 08:25:27;;;;;;;3.70;1.60;;;;;;;19.46;73.86;101778.72;4992995;28;96566;-26
2023/07/06 08:27:54;;;;;;;4.55;1.52;;;;;;;19.56;71.48;101787.06;4992046;28;96825;-26
2023/07/06 08:30:21;;;;;;;5.22;1.30;;;;;;;19.60;71.83;101783.94;4991418;28;100988;-29
2023/07/06 08:32:50;;;;;;;3.65;1.65;;;;;;;19.84;71.11;101791.13;4991186;28;101074;-27
2023/07/06 08:35:17;;;;;;;3.75;1.55;;;;;;;19.97;71.32;101783.53;4990850;28;97305;-25
2023/07/06 08:37:43;;;;;;;5.13;1.55;;;;;;;;;;4990682;28;96797;-26
2023/07/06 08:40:14;;;;;;;4.57;1.75;;;;;;;19.79;70.63;101788.75;4991191;28;101181;-26
2023/07/06 08:42:41;;;;;;;;;;;;;;;19.58;70.90;101790.56;4991724;28;101197;-26
2023/07/06 08:45:15;;;;;;;6.53;1.63;;;;;;;19.37;70.87;101780.34;4992764;28;96658;-26
2023/07/06 08:47:40;;;;;;;6.40;1.58;;;;;;;19.26;71.70;101786.78;4991472;28;96593;-26
2023/07/06 08:50:09;;;;;;;3.30;1.23;;;;;;;19.17;72.31;101795.78;4992690;28;97924;-27
2023/07/06 08:52:36;;;;;;;6.90;1.70;;;;;;;19.11;73.25;101799.00;4991393;28;102356;-26
2023/07/06 08:55:03;;;;;;;2.45;1.27;;;;;;;18.97;72.36;101813.00;4992597;28;96452;-25
2023/07/06 08:57:30;;;;;;;3.08;0.98;;;;;;;18.79;71.56;101816.25;4991064;28;96813;-26
2023/07/06 08:59:56;;;;;;;2.78;1.05;;;;;;;18.65;72.48;101813.72;4990555;28;99073;-26
2023/07/06 09:02:23;;;;;;;5.05;1.67;;;;;;;18.53;72.50;101810.09;4991066;28;100025;-25
2023/07/06 09:04:51;;;;;;;6.18;1.05;;;;;;;18.42;72.90;101824.69;4992461;28;96534;-26
2023/07/06 09:07:21;;;;;;;4.78;1.52;;;;;;;18.32;72.87;101823.63;4990685;28;96819;-26
2023/07/06 09:09:47;;;;;;;2.63;1.25;;;;;;;18.22;74.80;101818.00;4992051;28;101091;-26
2023/07/06 09:12:28;;;;;;;2.92;1.38;;;;;;;18.24;75.24;101829.72;4990746;28;101137;-26
2023/07/06 09:14:55;;;;;;;3.35;1.40;;;;;;;18.15;75.28;101821.34;4992651;28;96449;-27
2023/07/06 09:17:21;;;;;;;4.38;1.27;;;;;;;18.25;75.32;101834.22;4991154;28;96817;-27
2023/07/06 09:19:47;;;;;;;3.65;1.15;;;;;;;18.27;74.82;101833.22;4992114;28;99371;-26
2023/07/06 09:22:13;;;;;;;4.07;1.38;;;;;;;18.30;74.80;101827.50;4990820;28;100877;-26
2023/07/06 09:24:44;;;;;;;1.55;0.98;;;;;;;18.34;73.99;101838.13;4990222;28;97001;-26
2023/07/06 09:27:17;;;;;;;3.03;0.95;;;;;;;18.39;74.75;101840.50;4990962;28;97252;-29
2023/07/06 09:29:43;;;;;;;2.67;1.20;;;;;;;18.40;74.67;101836.75;4990581;28;100971;-28
2023/07/06 09:32:11;;;;;;;4.50;1.30;;;;;;;18.38;74.12;101847.84;4992101;28;97890;-30
2023/07/06 09:34:41;;;;;;;2.55;1.30;;;;;;;18.31;74.65;101834.75;4991995;28;96853;-28
2023/07/06 09:37:11;;;;;;;3.90;1.20;;;;;;;18.31;74.88;101848.47;4989895;28;96856;-26
2023/07/06 09:39:37;;;;;;;2.70;1.30;;;;;;;18.23;74.96;101855.44;4991996;28;97963;-26
2023/07/06 09:42:03;;;;;;;3.47;1.17;;;;;;;18.12;74.07;101833.44;4990649;28;98794;-26
2023/07/06 09:44:31;;;;;;;3.45;0.95;;;;;;;18.15;73.93;101849.66;4992092;28;96523;-26
2023/07/06 09:46:58;;;;;;;1.08;0.63;;;;;;;18.14;73.76;101841.53;4990449;28;96795;-26
2023/07/06 09:49:42;;;;;;;1.55;0.47;;;;;;;18.23;73.58;101844.47;4989953;28;98983;-26
2023/07/06 09:52:15;;;;;;;4.68;1.05;;;;;;;18.17;72.87;101842.19;4992067;28;97916;-26
2023/07/06 09:54:56;;;;;;;1.05;0.50;;;;;;;18.33;71.73;101852.84;4991627;28;96696;-26
2023/07/06 09:57:25;;;;;;;2.22;0.47;;;;;;;18.41;71.24;101853.09;4991947;28;96915;-25
2023/07/06 09:59:52;;;;;;;1.67;0.77;;;;;;;18.50;71.32;101845.16;4990324;28;100795;-26
2023/07/06 10:02:25;;;;;;;0.85;0.40;;;;;;;18.76;70.54;101846.72;4991580;28;99532;-26
2023/07/06 10:04:57;;;;;;;0.55;0.43;;;;;;;19.17;67.99;101847.09;4990438;28;96680;-26
2023/07/06 10:07:48;;;;;;;0.68;0.40;;;;;;;19.35;65.76;101855.69;4990699;28;96647;-26
2023/07/06 10:10:32;;;;;;;1.33;0.60;;;;;;;19.69;61.49;101859.28;4990207;28;100706;-26
2023/07/06 10:13:21;;;;;;;1.13;0.50;;;;;;;20.05;60.08;101865.41;4991527;28;98729;-26
2023/07/06 10:15:59;;;;;;;0.30;0.30;;;;;;;20.36;61.75;101856.25;4989711;28;97610;-26
2023/07/06 10:18:32;;;;;;;1.33;0.70;;;;;;;20.44;59.86;101855.56;4991890;28;97164;-26
2023/07/06 10:21:24;;;;;;;0.73;0.50;;;;;;;20.74;54.49;101842.91;4995133;28;97484;-26
2023/07/06 10:23:49;;;;;;;3.33;0.68;;;;;;;21.12;58.99;101855.13;4993621;28;98201;-26
2023/07/06 10:26:33;;;;;;;1.58;0.63;;;;;;;21.29;57.47;101859.09;4994718;28;96448;-26
2023/07/06 10:29:16;;;;;;;2.67;0.35;;;;;;;21.55;57.20;101852.09;4995096;28;96531;-26
2023/07/06 10:32:17;;;;;;;0.85;0.32;;;;;;;21.74;55.90;101864.19;4993463;28;101612;-26
2023/07/06 10:34:55;;;;;;;3.17;0.68;;;;;;;21.94;55.88;101846.63;4961747;28;98988;-26
2023/07/06 10:37:24;;;;;;;1.17;0.32;;;;;;;22.12;55.76;101851.41;4992855;28;96660;-27
2023/07/06 10:39:54;;;;;;;1.42;0.50;;;;;;;22.22;52.25;101863.38;4993425;28;97190;-26
2023/07/06 10:42:21;;;;;;;1.08;0.40;;;;;;;22.26;50.67;101857.44;4993966;28;99236;-27
2023/07/06 10:44:52;;;;;;;3.53;0.70;;;;;;;22.47;53.28;101850.84;4994666;28;97962;-26
2023/07/06 10:47:39;;;;;;;0.45;0.22;;;;;;;22.68;50.99;101853.44;4993140;28;96567;-28
2023/07/06 10:50:08;;;;;;;0.45;0.28;;;;;;;22.81;51.02;101855.84;4993069;28;97035;-28
2023/07/06 10:52:43;;;;;;;0.80;0.50;;;;;;;22.91;51.34;101856.72;4994518;28;96794;-28
2023/07/06 10:55:31;;;;;;;2.15;0.52;;;;;;;22.99;49.58;101854.09;4994401;28;99368;-28
2023/07/06 10:58:13;;;;;;;0.63;0.40;;;;;;;22.94;50.67;101861.06;4979838;28;96902;-29
2023/07/06 11:00:44;;;;;;;1.35;0.70;;;;;;;22.90;50.82;101869.63;4976759;28;97056;-29
2023/07/06 11:03:16;;;;;;;2.97;0.60;;;;;;;22.82;49.91;101866.75;4994386;28;98135;-29
2023/07/06 11:05:52;;;;;;;1.90;0.50;;;;;;;22.66;51.15;101861.84;4992816;28;100716;-28
2023/07/06 11:08:56;;;;;;;0.95;0.40;;;;;;;22.74;50.51;101882.34;4993655;28;96616;-29
2023/07/06 11:11:21;;;;;;;3.60;0.57;;;;;;;22.69;51.01;101880.91;4994066;28;96820;-28
2023/07/06 11:13:53;;;;;;;0.75;0.50;;;;;;;22.66;49.71;101883.09;4993977;28;99614;-28
2023/07/06 11:16:41;;;;;;;0.75;0.40;;;;;;;22.87;49.63;101880.13;4992527;28;99150;-29
2023/07/06 11:19:16;;;;;;;2.42;0.68;;;;;;;22.79;50.44;101872.59;4994263;28;96544;-28
2023/07/06 11:21:47;;;;;;;2.03;0.55;;;;;;;22.48;48.96;101875.56;4993977;28;96669;-29
2023/07/06 11:24:16;;;;;;;0.68;0.40;;;;;;;22.31;50.62;101879.06;4992536;28;101652;-29
2023/07/06 11:26:57;;;;;;;0.90;0.40;;;;;;;22.65;49.33;101889.66;4992847;28;100737;-28
2023/07/06 11:29:30;;;;;;;1.27;0.40;;;;;;;22.77;48.87;101885.69;4992397;28;96699;-28
2023/07/06 11:31:58;;;;;;;1.02;0.52;;;;;;;22.93;49.67;101875.88;4992619;28;96676;-28
2023/07/06 11:34:43;;;;;;;1.58;0.70;;;;;;;23.26;48.68;101885.53;4993245;28;97942;-29